Aérodrome :
LOGIN :

S'inscrire | Disclaimer

   EN    FR    IT 

 










Légende :    VFR   VFR Marginal   IFR   IFR Intensif   IFR Très Intensif
Visi : 
Plafond : 
>= 8 km
>= 3000ft
5 à 8 km
1000 à 3000 ft
1500m à 5 km
500 à 1000 ft
800 à 1500m
200 à 500 ft
< 800m
< 200 ft
Symboles :   Orages  Brouillard  Fortes neiges  Fortes précipitations  Vent > 20 kt
SIGMETs :   Divers  Orages  Givrage  Turbulence  Onde Orograph.  Cendres Volcan.







- Altitude de l'aérodrome : 17 ft
- Code IATA : MPL
- Voir les cartes d'approche


LFMT - Montpellier Méditerranée

DERNIER METAR :
  • 200900Z AUTO 02009KT 8000 -RA FEW034/// OVC044/// ///CB 05/03 Q1012 TEMPO SHRA

METARs EXPIRÉS :
  • 200830Z AUTO 02009KT 8000 -RA FEW020/// OVC039/// ///CB 05/03 Q1012 TEMPO SHRA
  • 200800Z AUTO 02010KT 9999 FEW020/// BKN041/// OVC049/// ///CB 05/03 Q1012 TEMPO 4000 SHRA
  • 200730Z AUTO 02010KT 9999 FEW021/// SCT033/// OVC044/// ///CB 04/03 Q1011 TEMPO 4000 SHRA
  • 200700Z AUTO 03009KT 8000 -RA FEW027/// SCT033/// BKN040/// ///CB 04/03 Q1011 TEMPO 4000 SHRA
  • 200630Z AUTO 02009KT 6000 -RA BKN031/// OVC042/// ///CB 04/03 Q1011 TEMPO 4000 SHRA

TAF TAF LFMT
Valide du 20 à 09h jusqu'au 21 à 09h UTC


200800Z 2009/2109 36012KT 9999 BKN020
TEMPO 2009/2016 SHRA BKN020TCU
BECMG 2016/2018 CAVOK
TEMPO 2018/2109 VRB02KT
ATIS : +33 4 67 13 11 70
Pas de NOTAMs connus pour ce terrain.



MET'MAP, la Météo Aéronautique d'un coup d'oeil ! - Copyright ORBIFLY Décembre 2007 - Disclaimer

ORBIFLY MET'MAP TEAM :

Programmation & Développement : Alexandra Zaïnal
Conception & Développement : Baudouin d'Aumeries
Co-Programmation & Développement : Marc-Olivier Méhu
Soutien technique & logistique : Manuel Goepfert

Contact : metmap@orbifly.com




SOURCES & CREDITS :

   NOAA